Billings, MT

5:47 AM MDT on September 18, 2014 (GMT -0600)
Billings West | Change Station
CLOSE
Current Station
Personal Weather Station
Location: Billings, MT
Elevation: 3258 ft
Nearby Weather Stations

Elev 3258 ft 45.79 °N, 108.56 °W | Updated 46 seconds ago

Scattered Clouds
Scattered Clouds
57.6 °F
Feels Like 57.6 °F
N
-
Wind Variable Wind from North

Today
High -- | Low -- °F
--% Chance of Precip.
Yesterday
High -- | Low -- °F
Precip. -- in
6:56 AM 7:19 PM
Waning Crescent, 28% visible
Pressure 29.69 in
Visibility 10.0 miles
Clouds Few 12000 ft
Scattered Clouds 23000 ft
Dew Point 46 °F
Humidity 66%
Rainfall -999.00 in
Snow Depth 0 in , 0 in , 0 in
UV 0 out of 12
Pollen 6.10 out of 12
Air Quality Not available.
Flu Activity Not available.
METAR KBIL 181053Z 21007KT 10SM FEW120 SCT230 17/08 A2979 RMK AO2 SLP053 T01670083

More Conditions Fewer Conditions

Pressure 29.69 in
Visibility 10.0 miles
Clouds Few 12000 ft
Scattered Clouds 23000 ft
Dew Point 46 °F
Humidity 66%
Rainfall -999.00 in
Snow Depth 0 in , 0 in , 0 in
UV 0 out of 12
Pollen 6.10 out of 12
Air Quality Not available.
Flu Activity Not available.
METAR KBIL 181053Z 21007KT 10SM FEW120 SCT230 17/08 A2979 RMK AO2 SLP053 T01670083

More Conditions Fewer Conditions

10-Day Weather Forecast

Almanac

Astronomy

Sep. 18, 2014 Rise Set
Actual Time 6:56 AM MDT 7:19 PM MDT
Civil Twilight 6:26 AM MDT 7:49 PM MDT
Nautical Twilight 5:51 AM MDT 8:24 PM MDT
Astronomical Twilight 5:14 AM MDT 9:00 PM MDT
Moon 1:38 AM MDT 4:23 PM MDT
Length of Visible Light 13h 22m
Length of Day
12h 23m
Tomorrow will be 3m 13s shorter.
Waning Crescent, 28% of the Moon is Illuminated
Today
Waning Crescent
Sep 24
New
Oct 1
First Quarter
Oct 8
Full
Oct 15
Last Quarter

Today's Extremes

State Highs State Lows

Community

WunderPhotos

Upload Photos

1,754,324 photos uploaded!

Nearby

Snow Depth

Station Depth Elevation
Hoodoo Basin 0 in 6050 ft
Monument Peak 0 in 8850 ft
Kraft Creek 0 in 4750 ft
Garver Creek 1 in 4250 ft
Placer Basin 0 in 8830 ft

Earthquake Activity

City Distance Mag. Time & Date
No recent earthquake activity has been reported nearby.
Minimum magnitude displayed is 2.5.

Coastal Water Temperatures

Place Temperature
No Stations Reporting

Nearby Weather Stations